Terminal Aerodrome Forecast
Issued by NWS Mt. Holly, NJ

Current Version | Previous Version | Text Only | Print | Product List | Glossary On
Versions: 1 2 3 4 5 6 7 8 9 10 11 12 13 14 15 16 17
000
FTUS41 KPHI 250559 AAA
TAFABE
TAF AMD
KABE 250559Z 2506/2606 09010KT P6SM OVC040
     FM250800 08009KT P6SM VCSH OVC015
      TEMPO 2511/2514 6SM -SHRA OVC008
     FM251500 07012KT 3SM -RA OVC008
     FM252000 07012G18KT 2SM RA OVC010
     FM260000 06011KT 4SM BR OVC008
     FM260400 05010KT 3SM BR OVC005=

USA.gov is the U.S. government's official web portal to all federal, state and local government web resources and services.